createdAt,value
2023-02-13T00:01:43.104Z,3.09
2023-02-13T00:03:48.835Z,3.1
2023-02-13T00:05:54.666Z,3.08
2023-02-13T00:08:00.045Z,3.1
2023-02-13T00:10:05.332Z,3.14
2023-02-13T00:12:10.632Z,3.15
2023-02-13T00:14:15.987Z,3.17
2023-02-13T00:16:21.295Z,3.16
2023-02-13T00:18:26.516Z,3.16
2023-02-13T00:20:31.518Z,3.24
2023-02-13T00:22:36.550Z,3.27
2023-02-13T00:24:41.805Z,3.28
2023-02-13T00:26:47.040Z,3.29
2023-02-13T00:28:52.230Z,3.26
2023-02-13T00:30:57.787Z,3.23
2023-02-13T00:33:04.814Z,3.25
2023-02-13T00:35:09.962Z,3.23
2023-02-13T00:37:15.221Z,3.31
2023-02-13T00:39:21.077Z,3.34
2023-02-13T00:41:26.639Z,3.35
2023-02-13T00:43:31.826Z,3.33
2023-02-13T00:45:37.024Z,3.32
2023-02-13T00:47:42.341Z,3.33
2023-02-13T00:49:47.708Z,3.32
2023-02-13T00:51:52.919Z,3.33
2023-02-13T00:53:58.034Z,3.36
2023-02-13T00:56:03.249Z,3.35
2023-02-13T00:58:08.529Z,3.32
2023-02-13T01:00:13.912Z,3.31
2023-02-13T01:02:19.154Z,3.3
2023-02-13T01:04:24.458Z,3.33
2023-02-13T01:06:29.855Z,3.31
2023-02-13T01:08:34.969Z,3.33
2023-02-13T01:10:40.527Z,3.35
2023-02-13T01:12:45.860Z,3.35
2023-02-13T01:14:51.070Z,3.31
2023-02-13T01:16:56.358Z,3.25
2023-02-13T01:19:01.406Z,3.2
2023-02-13T01:21:06.708Z,3.16
2023-02-13T01:23:12.110Z,3.13
2023-02-13T01:25:17.590Z,3.08
2023-02-13T01:27:22.773Z,3.09
2023-02-13T01:29:28.082Z,3.07
2023-02-13T01:31:33.407Z,3.06
2023-02-13T01:33:39.332Z,3.04
2023-02-13T01:35:44.671Z,3.04
2023-02-13T01:37:49.786Z,3.01
2023-02-13T01:39:55.427Z,3.03
2023-02-13T01:42:00.679Z,3
2023-02-13T01:44:06.035Z,3
2023-02-13T01:46:11.282Z,2.99
2023-02-13T01:48:16.608Z,3
2023-02-13T01:50:21.931Z,3
2023-02-13T01:52:27.187Z,3
2023-02-13T01:54:32.599Z,3.01
2023-02-13T01:56:37.793Z,3
2023-02-13T01:58:42.959Z,2.99
2023-02-13T02:00:48.066Z,2.99
2023-02-13T02:02:53.173Z,2.97
2023-02-13T02:04:58.303Z,2.97
2023-02-13T02:07:03.418Z,2.96
2023-02-13T02:09:08.526Z,2.99
2023-02-13T02:11:14.102Z,3
2023-02-13T02:13:19.825Z,3.05
2023-02-13T02:15:25.824Z,3.03
2023-02-13T02:17:31.017Z,3.04
2023-02-13T02:19:36.365Z,3.03
2023-02-13T02:21:41.511Z,3.03
2023-02-13T02:23:46.581Z,3.01
2023-02-13T02:25:51.667Z,3.01
2023-02-13T02:27:56.825Z,3.06
2023-02-13T02:30:02.214Z,3.01
2023-02-13T02:32:07.698Z,2.98
2023-02-13T02:34:12.882Z,2.98
2023-02-13T02:36:18.190Z,2.97
2023-02-13T02:38:23.315Z,2.95
2023-02-13T02:40:28.538Z,2.96
2023-02-13T02:42:33.579Z,2.98
2023-02-13T02:44:39.106Z,3.08
2023-02-13T02:46:44.537Z,3.1
2023-02-13T02:48:49.950Z,3.14
2023-02-13T02:50:55.603Z,3.19
2023-02-13T02:53:01.850Z,3.25
2023-02-13T02:55:07.411Z,3.25
2023-02-13T02:57:14.006Z,3.22
2023-02-13T02:59:19.113Z,3.27
2023-02-13T03:01:24.542Z,3.3
2023-02-13T03:03:29.954Z,3.28
2023-02-13T03:05:35.320Z,3.31
2023-02-13T03:07:40.487Z,3.34
2023-02-13T03:09:45.747Z,3.41
2023-02-13T03:11:51.224Z,3.43
2023-02-13T03:13:56.588Z,3.45
2023-02-13T03:16:01.875Z,3.44
2023-02-13T03:18:07.264Z,3.45
2023-02-13T03:20:12.768Z,3.46
2023-02-13T03:22:21.064Z,3.46
2023-02-13T03:24:26.631Z,3.58
2023-02-13T03:26:31.957Z,3.59
2023-02-13T03:28:37.637Z,3.59
2023-02-13T03:30:43.179Z,3.59
2023-02-13T03:32:48.816Z,3.57
2023-02-13T03:34:54.015Z,3.61
2023-02-13T03:36:59.221Z,3.65
2023-02-13T03:39:04.326Z,3.69
2023-02-13T03:41:09.729Z,3.66
2023-02-13T03:43:15.030Z,3.71
2023-02-13T03:45:21.273Z,3.69
2023-02-13T03:47:26.414Z,3.72
2023-02-13T03:49:31.876Z,3.7
2023-02-13T03:51:37.206Z,3.69
2023-02-13T03:53:42.444Z,3.62
2023-02-13T03:55:47.680Z,3.66
2023-02-13T03:57:53.066Z,3.66
2023-02-13T03:59:58.731Z,3.69
2023-02-13T04:02:03.988Z,3.71
2023-02-13T04:04:09.461Z,3.76
2023-02-13T04:06:14.880Z,3.74
2023-02-13T04:08:20.659Z,3.73
2023-02-13T04:10:25.932Z,3.74
2023-02-13T04:12:31.387Z,3.75
2023-02-13T04:14:36.817Z,3.77
2023-02-13T04:16:42.462Z,3.74
2023-02-13T04:18:47.960Z,3.76
2023-02-13T04:20:53.263Z,3.77
2023-02-13T04:22:59.649Z,3.79
2023-02-13T04:25:04.930Z,3.8
2023-02-13T04:27:09.937Z,3.78
2023-02-13T04:29:15.092Z,3.74
2023-02-13T04:31:20.750Z,3.76
2023-02-13T04:33:26.643Z,3.77
2023-02-13T04:35:32.497Z,3.77
2023-02-13T04:37:37.713Z,3.81
2023-02-13T04:39:43.320Z,3.81
2023-02-13T04:41:48.313Z,3.82
2023-02-13T04:43:54.111Z,3.83
2023-02-13T04:45:59.423Z,3.78
2023-02-13T04:48:04.918Z,3.81
2023-02-13T04:50:10.075Z,3.81
2023-02-13T04:52:15.147Z,3.81
2023-02-13T04:54:20.646Z,3.83
2023-02-13T04:56:25.883Z,3.87
2023-02-13T04:58:31.286Z,3.88
2023-02-13T05:00:36.476Z,3.86
2023-02-13T05:02:41.908Z,3.91
2023-02-13T05:04:47.037Z,3.92
2023-02-13T05:06:52.814Z,3.91
2023-02-13T05:08:58.437Z,3.9
2023-02-13T05:11:03.842Z,3.93
2023-02-13T05:13:09.111Z,3.92
2023-02-13T05:15:14.234Z,3.94
2023-02-13T05:17:19.509Z,3.95
2023-02-13T05:19:24.826Z,4.01
2023-02-13T05:21:29.959Z,3.99
2023-02-13T05:23:35.360Z,3.97
2023-02-13T05:25:40.771Z,3.98
2023-02-13T05:27:45.886Z,3.96
2023-02-13T05:29:51.149Z,3.95
2023-02-13T05:31:56.479Z,3.99
2023-02-13T05:34:02.802Z,4
2023-02-13T05:36:08.263Z,4.03
2023-02-13T05:38:13.558Z,4.07
2023-02-13T05:40:19.182Z,4.07
2023-02-13T05:42:26.573Z,4.04
2023-02-13T05:44:31.784Z,4.06
2023-02-13T05:46:38.436Z,4.06
2023-02-13T05:48:44.914Z,4.07
2023-02-13T05:50:49.991Z,4.09
2023-02-13T05:52:55.439Z,4.1
2023-02-13T05:55:00.788Z,4.14
2023-02-13T05:57:06.136Z,4.2
2023-02-13T05:59:11.518Z,4.17
2023-02-13T06:01:17.245Z,4.16
2023-02-13T06:03:22.715Z,4.17
2023-02-13T06:05:28.375Z,4.17
2023-02-13T06:07:33.457Z,4.17
2023-02-13T06:09:38.860Z,4.18
2023-02-13T06:11:44.169Z,4.16
2023-02-13T06:13:49.212Z,4.16
2023-02-13T06:15:54.783Z,4.18
2023-02-13T06:18:00.321Z,4.14
2023-02-13T06:20:05.668Z,4.15
2023-02-13T06:22:11.384Z,4.15
2023-02-13T06:24:16.870Z,4.15
2023-02-13T06:26:22.478Z,4.12
2023-02-13T06:28:28.024Z,4.1
2023-02-13T06:30:33.857Z,4.11
2023-02-13T06:32:39.548Z,4.08
2023-02-13T06:34:44.936Z,4.06
2023-02-13T06:36:50.122Z,4.04
2023-02-13T06:38:55.445Z,4.04
2023-02-13T06:41:01.257Z,4.04
2023-02-13T06:43:06.970Z,4.03
2023-02-13T06:45:12.196Z,4.04
2023-02-13T06:47:18.067Z,4.04
2023-02-13T06:49:24.130Z,4.04
2023-02-13T06:51:29.242Z,4.05
2023-02-13T06:53:34.860Z,4.06
2023-02-13T06:55:40.419Z,4.06
2023-02-13T06:57:45.865Z,4.09
2023-02-13T06:59:51.647Z,4.12
2023-02-13T07:01:57.633Z,4.14
2023-02-13T07:04:03.377Z,4.16
2023-02-13T07:06:08.576Z,4.17
2023-02-13T07:08:13.735Z,4.19
2023-02-13T07:10:19.431Z,4.26
2023-02-13T07:12:24.955Z,4.27
2023-02-13T07:14:30.184Z,4.31
2023-02-13T07:16:35.593Z,4.35
2023-02-13T07:18:41.291Z,4.41
2023-02-13T07:20:46.648Z,4.5
2023-02-13T07:22:51.853Z,4.57
2023-02-13T07:24:57.472Z,4.62
2023-02-13T07:27:02.859Z,4.68
2023-02-13T07:29:12.207Z,4.71
2023-02-13T07:31:17.847Z,4.75
2023-02-13T07:33:24.294Z,4.8
2023-02-13T07:35:29.968Z,4.8
2023-02-13T07:37:35.319Z,4.79
2023-02-13T07:39:40.792Z,4.82
2023-02-13T07:41:46.244Z,4.86
2023-02-13T07:43:52.712Z,4.92
2023-02-13T07:45:58.919Z,4.93
2023-02-13T07:48:04.487Z,4.97
2023-02-13T07:50:10.256Z,5.01
2023-02-13T07:52:16.498Z,5.11
2023-02-13T07:54:22.789Z,5.21
2023-02-13T07:56:29.157Z,5.21
2023-02-13T07:58:35.952Z,5.24
2023-02-13T08:00:42.078Z,5.29
2023-02-13T08:02:47.337Z,5.3
2023-02-13T08:04:53.740Z,5.24
2023-02-13T08:07:03.772Z,5.17
2023-02-13T08:09:09.177Z,5.12
2023-02-13T08:11:15.722Z,5.12
2023-02-13T08:13:22.545Z,5.17
2023-02-13T08:15:27.969Z,5.15
2023-02-13T08:17:34.315Z,5.02
2023-02-13T08:19:40.373Z,5.02
2023-02-13T08:21:46.748Z,5.1
2023-02-13T08:23:52.709Z,5.19
2023-02-13T08:26:03.783Z,5.22
2023-02-13T08:28:09.391Z,5.21
2023-02-13T08:30:14.977Z,5.34
2023-02-13T08:32:20.519Z,5.35
2023-02-13T08:34:26.313Z,5.41
2023-02-13T08:36:32.498Z,5.47
2023-02-13T08:38:38.106Z,5.62
2023-02-13T08:40:44.866Z,5.61
2023-02-13T08:42:50.408Z,5.61
2023-02-13T08:44:58.881Z,5.67
2023-02-13T08:47:05.433Z,5.73
2023-02-13T08:49:11.481Z,5.67
2023-02-13T08:51:17.114Z,5.6
2023-02-13T08:53:22.741Z,5.75
2023-02-13T08:55:28.250Z,5.94
2023-02-13T08:57:34.270Z,5.95
2023-02-13T08:59:43.138Z,6.02
2023-02-13T09:01:48.976Z,6.04
2023-02-13T09:03:54.719Z,6.07
2023-02-13T09:06:00.886Z,6.18
2023-02-13T09:08:06.402Z,6.28
2023-02-13T09:10:11.748Z,6.26
2023-02-13T09:12:17.715Z,6.31
2023-02-13T09:14:24.993Z,6.4
2023-02-13T09:16:30.682Z,6.5
2023-02-13T09:18:36.409Z,6.55
2023-02-13T09:20:41.840Z,6.54
2023-02-13T09:22:47.261Z,6.43
2023-02-13T09:24:52.583Z,6.47
2023-02-13T09:26:58.056Z,6.34
2023-02-13T09:29:04.116Z,6.24
2023-02-13T09:31:10.891Z,6.13
2023-02-13T09:33:17.429Z,6.19
2023-02-13T09:35:23.120Z,6.34
2023-02-13T09:37:28.361Z,6.26
2023-02-13T09:39:33.965Z,6.27
2023-02-13T09:41:40.712Z,6.25
2023-02-13T09:43:46.816Z,6.2
2023-02-13T09:45:52.559Z,6.15
2023-02-13T09:47:59.496Z,6.22
2023-02-13T09:50:06.370Z,6.27
2023-02-13T09:52:12.579Z,6.29
2023-02-13T09:54:19.312Z,6.2
2023-02-13T09:56:25.136Z,6.02
2023-02-13T09:58:31.168Z,5.95
2023-02-13T10:00:36.834Z,5.86
2023-02-13T10:02:42.988Z,5.75
2023-02-13T10:04:48.640Z,5.8
2023-02-13T10:06:54.512Z,5.83
2023-02-13T10:09:00.412Z,5.76
2023-02-13T10:11:06.806Z,5.72
2023-02-13T10:13:12.913Z,5.67
2023-02-13T10:15:19.064Z,5.65
2023-02-13T10:17:24.480Z,5.58
2023-02-13T10:19:30.008Z,5.55
2023-02-13T10:21:35.300Z,5.54
2023-02-13T10:23:41.052Z,5.48
2023-02-13T10:25:46.463Z,5.41
2023-02-13T10:27:51.763Z,5.38
2023-02-13T10:29:57.205Z,5.39
2023-02-13T10:32:02.735Z,5.38
2023-02-13T10:34:09.333Z,5.38
2023-02-13T10:36:16.044Z,5.42
2023-02-13T10:38:22.640Z,5.52
2023-02-13T10:40:29.322Z,5.57
2023-02-13T10:42:36.618Z,5.49
2023-02-13T10:44:43.354Z,5.5
2023-02-13T10:46:50.441Z,5.57
2023-02-13T10:48:56.850Z,5.81
2023-02-13T10:51:02.559Z,5.78
2023-02-13T10:53:09.728Z,5.78
2023-02-13T10:55:14.930Z,5.65
2023-02-13T10:57:20.337Z,5.55
2023-02-13T10:59:26.038Z,5.55
2023-02-13T11:01:32.217Z,5.63
2023-02-13T11:03:38.768Z,5.71
2023-02-13T11:05:43.996Z,5.74
2023-02-13T11:07:50.112Z,5.68
2023-02-13T11:09:56.018Z,5.62
2023-02-13T11:12:02.148Z,5.49
2023-02-13T11:14:08.427Z,5.48
2023-02-13T11:16:15.655Z,5.56
2023-02-13T11:18:22.365Z,5.62
2023-02-13T11:20:28.089Z,5.59
2023-02-13T11:22:34.098Z,5.69
2023-02-13T11:24:39.454Z,5.73
2023-02-13T11:26:45.074Z,5.78
2023-02-13T11:28:52.006Z,5.65
2023-02-13T11:30:58.898Z,5.59
2023-02-13T11:33:05.670Z,5.61
2023-02-13T11:35:11.959Z,5.55
2023-02-13T11:37:18.910Z,5.56
2023-02-13T11:39:25.085Z,5.54
2023-02-13T11:41:30.790Z,5.54
2023-02-13T11:43:37.717Z,5.58
2023-02-13T11:45:44.707Z,5.53
2023-02-13T11:47:51.153Z,5.44
2023-02-13T11:49:57.368Z,5.48
2023-02-13T11:52:04.174Z,5.53
2023-02-13T11:54:10.674Z,5.7
2023-02-13T11:56:17.644Z,5.68
2023-02-13T11:58:24.022Z,5.73
2023-02-13T12:00:30.483Z,5.82
2023-02-13T12:02:36.573Z,5.9
2023-02-13T12:04:46.942Z,5.91
2023-02-13T12:06:56.980Z,5.79
2023-02-13T12:09:20.542Z,5.88
2023-02-13T12:11:33.273Z,6.05
2023-02-13T12:13:44.783Z,6.12
2023-02-13T12:15:51.904Z,6.18
2023-02-13T12:18:03.404Z,6.25
2023-02-13T12:20:16.635Z,6.26
2023-02-13T12:22:25.733Z,6.21
2023-02-13T12:24:38.339Z,6.28
2023-02-13T12:26:55.992Z,6.25
2023-02-13T12:29:12.980Z,6.29
2023-02-13T12:31:29.103Z,6.29
2023-02-13T12:33:35.966Z,6.3
2023-02-13T12:35:48.734Z,6.31
2023-02-13T12:37:56.406Z,6.25
2023-02-13T12:40:04.179Z,6.23
2023-02-13T12:42:14.353Z,6.35
2023-02-13T12:44:34.440Z,6.43
2023-02-13T12:46:44.227Z,6.34
2023-02-13T12:51:18.311Z,6.31
2023-02-13T12:53:27.937Z,6.4
2023-02-13T12:55:36.119Z,6.41
2023-02-13T12:57:44.191Z,6.27
2023-02-13T12:59:53.988Z,6.24
2023-02-13T13:02:03.890Z,6.3
2023-02-13T13:04:17.060Z,6.27
2023-02-13T13:06:24.986Z,6.5
2023-02-13T13:08:31.317Z,6.72
2023-02-13T13:10:42.183Z,6.79
2023-02-13T13:12:48.786Z,6.89
2023-02-13T13:14:58.718Z,6.82
2023-02-13T13:20:40.760Z,6.74
2023-02-13T13:22:50.572Z,6.63
2023-02-13T13:28:33.767Z,6.44
2023-02-13T13:34:12.058Z,6.27
2023-02-13T13:39:54.487Z,6.13
2023-02-13T13:45:31.290Z,5.93
2023-02-13T13:51:09.295Z,5.97
2023-02-13T13:56:47.066Z,5.89
2023-02-13T14:02:24.042Z,5.67
2023-02-13T14:08:07.045Z,5.6
2023-02-13T14:13:44.214Z,5.57
2023-02-13T14:19:02.362Z,5.68
2023-02-13T14:21:15.322Z,5.73
2023-02-13T14:23:23.653Z,5.73
2023-02-13T14:25:35.403Z,5.77
2023-02-13T14:27:50.357Z,5.75
2023-02-13T14:29:59.094Z,5.66
2023-02-13T14:32:09.431Z,5.6
2023-02-13T14:34:29.195Z,5.57
2023-02-13T14:36:40.871Z,5.57
2023-02-13T14:38:52.382Z,5.55
2023-02-13T14:41:01.660Z,5.55
2023-02-13T14:43:16.007Z,5.52
2023-02-13T14:45:22.448Z,5.53
2023-02-13T14:47:29.385Z,5.53
2023-02-13T14:49:35.916Z,5.52
2023-02-13T14:51:41.747Z,5.51
2023-02-13T14:53:50.774Z,5.52
2023-02-13T14:55:57.160Z,5.53
2023-02-13T14:58:08.035Z,5.52
2023-02-13T15:00:30.886Z,5.5
2023-02-13T15:02:40.506Z,5.51
2023-02-13T15:04:50.475Z,5.5
2023-02-13T15:07:01.496Z,5.47
2023-02-13T15:11:39.457Z,5.45
2023-02-13T15:13:54.033Z,5.45
2023-02-13T15:16:00.926Z,5.43
2023-02-13T15:18:07.694Z,5.42
2023-02-13T15:20:19.479Z,5.39
2023-02-13T15:22:26.471Z,5.4
2023-02-13T15:24:36.246Z,5.39
2023-02-13T15:26:44.648Z,5.33
2023-02-13T15:28:56.908Z,5.3
2023-02-13T15:31:07.258Z,5.29
2023-02-13T15:33:14.496Z,5.24
2023-02-13T15:35:22.871Z,5.24
2023-02-13T15:37:40.228Z,5.23
2023-02-13T15:39:49.009Z,5.22
2023-02-13T15:41:57.845Z,5.22
2023-02-13T15:44:05.115Z,5.21
2023-02-13T15:46:15.252Z,5.19
2023-02-13T15:48:26.960Z,5.17
2023-02-13T15:50:37.671Z,5.17
2023-02-13T15:53:04.667Z,5.15
2023-02-13T15:55:16.457Z,5.12
2023-02-13T15:57:26.588Z,5.1
2023-02-13T16:02:18.908Z,5.06
2023-02-13T16:04:29.745Z,5.07
2023-02-13T16:06:36.996Z,5.07
2023-02-13T16:17:57.507Z,5.05
2023-02-13T16:20:10.499Z,5.04
2023-02-13T16:22:30.748Z,5.06
2023-02-13T16:24:39.013Z,5.07
2023-02-13T16:26:54.606Z,5.05
2023-02-13T16:29:13.059Z,5.02
2023-02-13T16:31:23.956Z,5
2023-02-13T16:33:33.001Z,5.02
2023-02-13T16:35:45.187Z,5.01
2023-02-13T16:37:57.895Z,5
2023-02-13T16:40:05.864Z,5.01
2023-02-13T16:42:14.186Z,5
2023-02-13T16:44:21.730Z,4.97
2023-02-13T16:46:31.863Z,4.99
2023-02-13T16:48:43.327Z,5
2023-02-13T16:50:55.040Z,5.01
2023-02-13T16:53:08.031Z,4.97
2023-02-13T16:55:16.143Z,4.99
2023-02-13T16:57:22.871Z,4.98
2023-02-13T16:59:29.760Z,4.95
2023-02-13T17:01:42.546Z,4.96
2023-02-13T17:03:56.193Z,4.97
2023-02-13T17:06:04.919Z,4.97
2023-02-13T17:08:18.146Z,5
2023-02-13T17:10:27.481Z,4.98
2023-02-13T17:12:37.114Z,4.99
2023-02-13T17:14:45.658Z,5.02
2023-02-13T17:16:54.014Z,5.03
2023-02-13T17:19:14.833Z,5
2023-02-13T17:21:26.674Z,4.96
2023-02-13T17:23:35.996Z,4.95
2023-02-13T17:25:46.512Z,4.95
2023-02-13T17:27:55.548Z,4.95
2023-02-13T17:30:11.922Z,4.95
2023-02-13T17:32:25.219Z,4.94
2023-02-13T17:34:40.123Z,4.93
2023-02-13T17:37:02.238Z,4.94
2023-02-13T17:41:58.451Z,4.94
2023-02-13T17:44:09.527Z,4.9
2023-02-13T17:50:13.620Z,4.86
2023-02-13T17:55:02.282Z,4.89
2023-02-13T17:58:00.471Z,4.87
2023-02-13T18:03:11.604Z,4.84
2023-02-13T18:05:47.891Z,4.85
2023-02-13T18:08:16.832Z,4.88
2023-02-13T18:10:29.355Z,4.89
2023-02-13T18:12:37.094Z,4.86
2023-02-13T18:14:50.414Z,4.86
2023-02-13T18:16:59.088Z,4.86
2023-02-13T18:19:13.606Z,4.87
2023-02-13T18:21:26.728Z,4.88
2023-02-13T18:23:39.352Z,4.87
2023-02-13T18:25:51.962Z,4.86
2023-02-13T18:28:05.310Z,4.84
2023-02-13T18:30:14.173Z,4.82
2023-02-13T18:32:23.028Z,4.81
2023-02-13T18:34:38.801Z,4.81
2023-02-13T18:36:52.177Z,4.79
2023-02-13T18:39:06.506Z,4.79
2023-02-13T18:41:18.911Z,4.82
2023-02-13T18:43:34.942Z,4.82
2023-02-13T18:45:44.767Z,4.77
2023-02-13T18:48:00.728Z,4.76
2023-02-13T18:50:12.764Z,4.74
2023-02-13T18:52:22.671Z,4.75
2023-02-13T18:54:31.200Z,4.74
2023-02-13T18:56:40.281Z,4.72
2023-02-13T18:59:02.320Z,4.7
2023-02-13T19:01:13.664Z,4.65
2023-02-13T19:03:22.675Z,4.64
2023-02-13T19:05:36.568Z,4.62
2023-02-13T19:07:47.287Z,4.64
2023-02-13T19:09:56.084Z,4.63
2023-02-13T19:12:11.641Z,4.63
2023-02-13T19:14:25.841Z,4.6
2023-02-13T19:16:39.381Z,4.62
2023-02-13T19:18:53.822Z,4.59
2023-02-13T19:21:03.854Z,4.61
2023-02-13T19:23:20.671Z,4.6
2023-02-13T19:25:32.057Z,4.6
2023-02-13T19:27:41.178Z,4.54
2023-02-13T19:29:50.923Z,4.58
2023-02-13T19:32:01.424Z,4.6
2023-02-13T19:34:27.015Z,4.57
2023-02-13T19:36:43.837Z,4.59
2023-02-13T19:38:54.654Z,4.58
2023-02-13T19:41:07.182Z,4.57
2023-02-13T19:43:20.817Z,4.58
2023-02-13T19:45:32.008Z,4.58
2023-02-13T19:47:44.806Z,4.58
2023-02-13T19:50:01.692Z,4.59
2023-02-13T19:52:13.689Z,4.57
2023-02-13T19:54:23.442Z,4.59
2023-02-13T19:56:39.949Z,4.57
2023-02-13T19:58:51.620Z,4.57
2023-02-13T20:01:01.020Z,4.56
2023-02-13T20:03:16.121Z,4.56
2023-02-13T20:05:29.860Z,4.56
2023-02-13T20:07:40.237Z,4.54
2023-02-13T20:09:51.520Z,4.56
2023-02-13T20:12:05.245Z,4.55
2023-02-13T20:14:14.652Z,4.52
2023-02-13T20:16:24.513Z,4.51
2023-02-13T20:18:37.240Z,4.52
2023-02-13T20:20:48.101Z,4.49
2023-02-13T20:23:05.704Z,4.5
2023-02-13T20:25:18.429Z,4.51
2023-02-13T20:27:32.505Z,4.54
2023-02-13T20:29:50.176Z,4.51
2023-02-13T20:32:19.857Z,4.49
2023-02-13T20:34:31.571Z,4.48
2023-02-13T20:37:04.252Z,4.5
2023-02-13T20:39:13.496Z,4.48
2023-02-13T20:41:29.095Z,4.46
2023-02-13T20:43:47.243Z,4.44
2023-02-13T20:45:58.986Z,4.44
2023-02-13T20:48:10.396Z,4.45
2023-02-13T20:50:22.796Z,4.46
2023-02-13T20:52:37.747Z,4.47
2023-02-13T20:54:48.100Z,4.44
2023-02-13T20:57:00.022Z,4.44
2023-02-13T20:59:12.019Z,4.45
2023-02-13T21:01:23.256Z,4.43
2023-02-13T21:03:34.276Z,4.4
2023-02-13T21:05:44.491Z,4.37
2023-02-13T21:07:54.730Z,4.39
2023-02-13T21:10:03.302Z,4.36
2023-02-13T21:12:17.029Z,4.34
2023-02-13T21:14:40.972Z,4.33
2023-02-13T21:16:49.430Z,4.31
2023-02-13T21:19:00.094Z,4.3
2023-02-13T21:21:08.707Z,4.31
2023-02-13T21:23:17.733Z,4.31
2023-02-13T21:25:27.977Z,4.3
2023-02-13T21:27:37.273Z,4.27
2023-02-13T21:29:45.264Z,4.27
2023-02-13T21:31:55.328Z,4.26
2023-02-13T21:34:04.207Z,4.23
2023-02-13T21:36:12.448Z,4.24
2023-02-13T21:38:18.579Z,4.27
2023-02-13T21:40:27.496Z,4.27
2023-02-13T21:42:39.763Z,4.23
2023-02-13T21:44:48.218Z,4.23
2023-02-13T21:46:55.192Z,4.22
2023-02-13T21:49:01.953Z,4.22
2023-02-13T21:51:08.356Z,4.19
2023-02-13T21:53:16.051Z,4.18
2023-02-13T21:55:26.221Z,4.17
2023-02-13T21:57:34.229Z,4.17
2023-02-13T21:59:39.688Z,4.17
2023-02-13T22:01:46.176Z,4.17
2023-02-13T22:03:52.494Z,4.2
2023-02-13T22:06:01.816Z,4.2
2023-02-13T22:08:08.927Z,4.22
2023-02-13T22:10:14.610Z,4.2
2023-02-13T22:12:20.547Z,4.16
2023-02-13T22:14:25.975Z,4.16
2023-02-13T22:16:31.720Z,4.17
2023-02-13T22:18:37.852Z,4.2
2023-02-13T22:20:43.440Z,4.19
2023-02-13T22:22:48.666Z,4.18
2023-02-13T22:24:54.624Z,4.17
2023-02-13T22:27:00.112Z,4.17
2023-02-13T22:29:05.629Z,4.16
2023-02-13T22:31:11.350Z,4.14
2023-02-13T22:33:17.628Z,4.13
2023-02-13T22:35:23.610Z,4.13
2023-02-13T22:37:29.002Z,4.13
2023-02-13T22:39:34.477Z,4.12
2023-02-13T22:41:41.027Z,4.12
2023-02-13T22:43:46.451Z,4.1
2023-02-13T22:45:52.580Z,4.12
2023-02-13T22:48:01.516Z,4.14
2023-02-13T22:50:06.705Z,4.12
2023-02-13T22:52:12.314Z,4.14
2023-02-13T22:54:20.933Z,4.13
2023-02-13T22:56:26.382Z,4.14
2023-02-13T22:58:32.100Z,4.13
2023-02-13T23:00:37.589Z,4.14
2023-02-13T23:02:43.046Z,4.13
2023-02-13T23:04:49.014Z,4.13
2023-02-13T23:06:54.723Z,4.13
2023-02-13T23:09:00.345Z,4.13
2023-02-13T23:11:05.629Z,4.15
2023-02-13T23:13:11.057Z,4.14
2023-02-13T23:15:16.463Z,4.14
2023-02-13T23:17:21.847Z,4.14
2023-02-13T23:19:27.384Z,4.15
2023-02-13T23:21:33.388Z,4.12
2023-02-13T23:23:38.937Z,4.14
2023-02-13T23:25:46.240Z,4.17
2023-02-13T23:27:51.592Z,4.19
2023-02-13T23:29:56.868Z,4.17
2023-02-13T23:32:02.396Z,4.17
2023-02-13T23:34:08.412Z,4.12
2023-02-13T23:36:13.643Z,4.13
2023-02-13T23:38:18.843Z,4.14
2023-02-13T23:40:24.101Z,4.14
2023-02-13T23:42:29.632Z,4.11
2023-02-13T23:44:35.098Z,4.11
2023-02-13T23:46:43.645Z,4.12
2023-02-13T23:48:49.664Z,4.12
2023-02-13T23:50:55.145Z,4.13
2023-02-13T23:53:01.748Z,4.13
2023-02-13T23:55:07.008Z,4.11
2023-02-13T23:57:12.207Z,4.12
2023-02-13T23:59:17.674Z,4.1
